MMCL/CUL METAR and TAF weather

Enter ICAO airport designator
Station Type Date Time Source
MMCL METAR 2022/01/26 19:45 UTC NOAA

MMCL 261945Z 24007KT 10SM SKC 25/11 A2998 RMK CLMNA FU W HZY


Station Type Date Time Source
MMCL Decoded METAR 2022/01/26 19:45 UTC NOAA

Culiacan, Sin., Mexico (MMCL) 24-49N 107-24W
Jan 26, 2022 - 02:45 PM EST / 2022.01.26 1945 UTC
Wind: from the WSW (240 degrees) at 8 MPH (7 KT):0
Visibility: 10 mile(s):0
Sky conditions: clear
Temperature: 77 F (25 C)
Dew Point: 51 F (11 C)
Relative Humidity: 41%
Pressure (altimeter): 29.98 in. Hg (1015 hPa)
ob: MMCL 261945Z 24007KT 10SM SKC 25/11 A2998 RMK CLMNA FU W HZY
cycle: 20

Station Type Date Time Source
MMCL TAF 2022/01/26 18:59 UTC NOAA

TAF MMCL 261656Z 2618/2718 24015KT P6SM SKC
BECMG 2700/2701 00000KT
FM271600 03010KT P6SM SKC

Example: see airport list